sensor_id;sensor_type;location;lat;lon;timestamp;temperature;humidity
11136;DHT22;5622;50.840;4.948;2023-02-12T00:01:24;7.50;99.90
11136;DHT22;5622;50.840;4.948;2023-02-12T00:03:53;7.50;99.90
11136;DHT22;5622;50.840;4.948;2023-02-12T00:06:22;7.50;99.90
11136;DHT22;5622;50.840;4.948;2023-02-12T00:08:50;7.50;99.90
11136;DHT22;5622;50.840;4.948;2023-02-12T00:11:19;7.50;99.90
11136;DHT22;5622;50.840;4.948;2023-02-12T00:13:47;7.50;99.90
11136;DHT22;5622;50.840;4.948;2023-02-12T00:16:15;7.50;99.90
11136;DHT22;5622;50.840;4.948;2023-02-12T00:18:43;7.50;99.90
11136;DHT22;5622;50.840;4.948;2023-02-12T00:21:10;7.50;99.90
11136;DHT22;5622;50.840;4.948;2023-02-12T00:23:40;7.40;99.90
11136;DHT22;5622;50.840;4.948;2023-02-12T00:26:08;7.50;99.90
11136;DHT22;5622;50.840;4.948;2023-02-12T00:28:35;7.40;99.90
11136;DHT22;5622;50.840;4.948;2023-02-12T00:31:07;7.40;99.90
11136;DHT22;5622;50.840;4.948;2023-02-12T00:33:34;7.40;99.90
11136;DHT22;5622;50.840;4.948;2023-02-12T00:36:02;7.40;99.90
11136;DHT22;5622;50.840;4.948;2023-02-12T00:38:30;7.40;99.90
11136;DHT22;5622;50.840;4.948;2023-02-12T00:40:58;7.40;99.90
11136;DHT22;5622;50.840;4.948;2023-02-12T00:43:25;7.40;99.90
11136;DHT22;5622;50.840;4.948;2023-02-12T00:45:52;7.40;99.90
11136;DHT22;5622;50.840;4.948;2023-02-12T00:48:21;7.40;99.90
11136;DHT22;5622;50.840;4.948;2023-02-12T00:50:49;7.40;99.90
11136;DHT22;5622;50.840;4.948;2023-02-12T00:53:16;7.40;99.90
11136;DHT22;5622;50.840;4.948;2023-02-12T00:55:44;7.40;99.90
11136;DHT22;5622;50.840;4.948;2023-02-12T00:58:13;7.40;99.90
11136;DHT22;5622;50.840;4.948;2023-02-12T01:00:41;7.40;99.90
11136;DHT22;5622;50.840;4.948;2023-02-12T01:03:09;7.40;99.90
11136;DHT22;5622;50.840;4.948;2023-02-12T01:05:36;7.40;99.90
11136;DHT22;5622;50.840;4.948;2023-02-12T01:08:04;7.40;99.90
11136;DHT22;5622;50.840;4.948;2023-02-12T01:10:31;7.40;99.90
11136;DHT22;5622;50.840;4.948;2023-02-12T01:12:59;7.40;99.90
11136;DHT22;5622;50.840;4.948;2023-02-12T01:15:28;7.40;99.90
11136;DHT22;5622;50.840;4.948;2023-02-12T01:17:55;7.40;99.90
11136;DHT22;5622;50.840;4.948;2023-02-12T01:20:24;7.40;99.90
11136;DHT22;5622;50.840;4.948;2023-02-12T01:22:51;7.40;99.90
11136;DHT22;5622;50.840;4.948;2023-02-12T01:25:19;7.40;99.90
11136;DHT22;5622;50.840;4.948;2023-02-12T01:27:46;7.40;99.90
11136;DHT22;5622;50.840;4.948;2023-02-12T01:30:16;7.40;99.90
11136;DHT22;5622;50.840;4.948;2023-02-12T01:32:48;7.30;99.90
11136;DHT22;5622;50.840;4.948;2023-02-12T01:35:15;7.30;99.90
11136;DHT22;5622;50.840;4.948;2023-02-12T01:37:42;7.30;99.90
11136;DHT22;5622;50.840;4.948;2023-02-12T01:40:12;7.30;99.90
11136;DHT22;5622;50.840;4.948;2023-02-12T01:42:40;7.30;99.90
11136;DHT22;5622;50.840;4.948;2023-02-12T01:48:23;7.30;99.90
11136;DHT22;5622;50.840;4.948;2023-02-12T01:50:52;7.30;99.90
11136;DHT22;5622;50.840;4.948;2023-02-12T01:53:21;7.30;99.90
11136;DHT22;5622;50.840;4.948;2023-02-12T01:55:52;7.30;99.90
11136;DHT22;5622;50.840;4.948;2023-02-12T01:58:21;7.30;99.90
11136;DHT22;5622;50.840;4.948;2023-02-12T02:00:50;7.30;99.90
11136;DHT22;5622;50.840;4.948;2023-02-12T02:03:18;7.30;99.90
11136;DHT22;5622;50.840;4.948;2023-02-12T02:05:53;7.30;99.90
11136;DHT22;5622;50.840;4.948;2023-02-12T02:08:22;7.30;99.90
11136;DHT22;5622;50.840;4.948;2023-02-12T02:10:49;7.30;99.90
11136;DHT22;5622;50.840;4.948;2023-02-12T02:13:16;7.30;99.90
11136;DHT22;5622;50.840;4.948;2023-02-12T02:16:05;7.30;99.90
11136;DHT22;5622;50.840;4.948;2023-02-12T02:18:41;7.30;99.90
11136;DHT22;5622;50.840;4.948;2023-02-12T02:27:26;7.30;99.90
11136;DHT22;5622;50.840;4.948;2023-02-12T02:30:33;7.40;99.90
11136;DHT22;5622;50.840;4.948;2023-02-12T02:36:06;7.30;99.90
11136;DHT22;5622;50.840;4.948;2023-02-12T02:38:40;7.30;99.90
11136;DHT22;5622;50.840;4.948;2023-02-12T02:41:15;7.30;99.90
11136;DHT22;5622;50.840;4.948;2023-02-12T02:43:46;7.30;99.90
11136;DHT22;5622;50.840;4.948;2023-02-12T02:46:19;7.30;99.90
11136;DHT22;5622;50.840;4.948;2023-02-12T02:48:51;7.30;99.90
11136;DHT22;5622;50.840;4.948;2023-02-12T02:51:22;7.30;99.90
11136;DHT22;5622;50.840;4.948;2023-02-12T02:53:55;7.30;99.90
11136;DHT22;5622;50.840;4.948;2023-02-12T02:56:23;7.30;99.90
11136;DHT22;5622;50.840;4.948;2023-02-12T02:58:55;7.30;99.90
11136;DHT22;5622;50.840;4.948;2023-02-12T03:01:27;7.30;99.90
11136;DHT22;5622;50.840;4.948;2023-02-12T03:04:01;7.30;99.90
11136;DHT22;5622;50.840;4.948;2023-02-12T03:06:34;7.20;99.90
11136;DHT22;5622;50.840;4.948;2023-02-12T03:09:10;7.30;99.90
11136;DHT22;5622;50.840;4.948;2023-02-12T03:11:39;7.20;99.90
11136;DHT22;5622;50.840;4.948;2023-02-12T03:14:10;7.30;99.90
11136;DHT22;5622;50.840;4.948;2023-02-12T03:16:45;7.30;99.90
11136;DHT22;5622;50.840;4.948;2023-02-12T03:19:19;7.30;99.90
11136;DHT22;5622;50.840;4.948;2023-02-12T03:21:51;7.30;99.90
11136;DHT22;5622;50.840;4.948;2023-02-12T03:24:25;7.20;99.90
11136;DHT22;5622;50.840;4.948;2023-02-12T03:26:58;7.30;99.90
11136;DHT22;5622;50.840;4.948;2023-02-12T03:29:26;7.20;99.90
11136;DHT22;5622;50.840;4.948;2023-02-12T03:32:07;7.20;99.90
11136;DHT22;5622;50.840;4.948;2023-02-12T03:34:45;7.20;99.90
11136;DHT22;5622;50.840;4.948;2023-02-12T03:37:17;7.20;99.90
11136;DHT22;5622;50.840;4.948;2023-02-12T03:39:51;7.20;99.90
11136;DHT22;5622;50.840;4.948;2023-02-12T03:42:26;7.20;99.90
11136;DHT22;5622;50.840;4.948;2023-02-12T03:45:02;7.20;99.90
11136;DHT22;5622;50.840;4.948;2023-02-12T03:47:39;7.10;99.90
11136;DHT22;5622;50.840;4.948;2023-02-12T03:50:11;7.20;99.90
11136;DHT22;5622;50.840;4.948;2023-02-12T03:52:39;7.20;99.90
11136;DHT22;5622;50.840;4.948;2023-02-12T03:55:08;7.20;99.90
11136;DHT22;5622;50.840;4.948;2023-02-12T03:57:39;7.20;99.90
11136;DHT22;5622;50.840;4.948;2023-02-12T04:00:13;7.20;99.90
11136;DHT22;5622;50.840;4.948;2023-02-12T04:02:42;7.20;99.90
11136;DHT22;5622;50.840;4.948;2023-02-12T04:05:17;7.20;99.90
11136;DHT22;5622;50.840;4.948;2023-02-12T04:07:44;7.20;99.90
11136;DHT22;5622;50.840;4.948;2023-02-12T04:10:12;7.20;99.90
11136;DHT22;5622;50.840;4.948;2023-02-12T04:12:45;7.20;99.90
11136;DHT22;5622;50.840;4.948;2023-02-12T04:15:25;7.30;99.90
11136;DHT22;5622;50.840;4.948;2023-02-12T04:18:05;7.20;99.90
11136;DHT22;5622;50.840;4.948;2023-02-12T04:20:41;7.30;99.90
11136;DHT22;5622;50.840;4.948;2023-02-12T04:23:18;7.20;99.90
11136;DHT22;5622;50.840;4.948;2023-02-12T04:25:53;7.20;99.90
11136;DHT22;5622;50.840;4.948;2023-02-12T04:28:31;7.20;99.90
11136;DHT22;5622;50.840;4.948;2023-02-12T04:31:04;7.20;99.90
11136;DHT22;5622;50.840;4.948;2023-02-12T04:33:37;7.20;99.90
11136;DHT22;5622;50.840;4.948;2023-02-12T04:36:10;7.20;99.90
11136;DHT22;5622;50.840;4.948;2023-02-12T04:38:42;7.20;99.90
11136;DHT22;5622;50.840;4.948;2023-02-12T04:41:13;7.20;99.90
11136;DHT22;5622;50.840;4.948;2023-02-12T04:43:40;7.20;99.90
11136;DHT22;5622;50.840;4.948;2023-02-12T04:46:08;7.20;99.90
11136;DHT22;5622;50.840;4.948;2023-02-12T04:48:47;7.10;99.90
11136;DHT22;5622;50.840;4.948;2023-02-12T04:51:15;7.10;99.90
11136;DHT22;5622;50.840;4.948;2023-02-12T04:53:42;7.10;99.90
11136;DHT22;5622;50.840;4.948;2023-02-12T04:56:10;7.10;99.90
11136;DHT22;5622;50.840;4.948;2023-02-12T04:58:37;7.10;99.90
11136;DHT22;5622;50.840;4.948;2023-02-12T05:01:05;7.10;99.90
11136;DHT22;5622;50.840;4.948;2023-02-12T05:03:32;7.10;99.90
11136;DHT22;5622;50.840;4.948;2023-02-12T05:06:03;7.10;99.90
11136;DHT22;5622;50.840;4.948;2023-02-12T05:08:31;7.00;99.90
11136;DHT22;5622;50.840;4.948;2023-02-12T05:11:03;7.00;99.90
11136;DHT22;5622;50.840;4.948;2023-02-12T05:13:30;7.00;99.90
11136;DHT22;5622;50.840;4.948;2023-02-12T05:15:57;7.00;99.90
11136;DHT22;5622;50.840;4.948;2023-02-12T05:18:25;7.00;99.90
11136;DHT22;5622;50.840;4.948;2023-02-12T05:20:55;7.00;99.90
11136;DHT22;5622;50.840;4.948;2023-02-12T05:23:27;7.00;99.90
11136;DHT22;5622;50.840;4.948;2023-02-12T05:25:56;7.00;99.90
11136;DHT22;5622;50.840;4.948;2023-02-12T05:28:24;7.00;99.90
11136;DHT22;5622;50.840;4.948;2023-02-12T05:30:51;7.00;99.90
11136;DHT22;5622;50.840;4.948;2023-02-12T05:33:18;7.00;99.90
11136;DHT22;5622;50.840;4.948;2023-02-12T05:35:45;7.00;99.90
11136;DHT22;5622;50.840;4.948;2023-02-12T05:38:12;7.00;99.90
11136;DHT22;5622;50.840;4.948;2023-02-12T05:40:41;7.00;99.90
11136;DHT22;5622;50.840;4.948;2023-02-12T05:43:08;7.00;99.90
11136;DHT22;5622;50.840;4.948;2023-02-12T05:45:35;7.00;99.90
11136;DHT22;5622;50.840;4.948;2023-02-12T05:48:03;7.00;99.90
11136;DHT22;5622;50.840;4.948;2023-02-12T05:50:30;7.00;99.90
11136;DHT22;5622;50.840;4.948;2023-02-12T05:52:58;7.00;99.90
11136;DHT22;5622;50.840;4.948;2023-02-12T05:55:25;7.00;99.90
11136;DHT22;5622;50.840;4.948;2023-02-12T05:57:54;6.90;99.90
11136;DHT22;5622;50.840;4.948;2023-02-12T06:00:22;7.00;99.90
11136;DHT22;5622;50.840;4.948;2023-02-12T06:02:49;6.90;99.90
11136;DHT22;5622;50.840;4.948;2023-02-12T06:05:16;6.90;99.90
11136;DHT22;5622;50.840;4.948;2023-02-12T06:07:43;7.00;99.90
11136;DHT22;5622;50.840;4.948;2023-02-12T06:10:11;7.00;99.90
11136;DHT22;5622;50.840;4.948;2023-02-12T06:12:38;7.00;99.90
11136;DHT22;5622;50.840;4.948;2023-02-12T06:15:07;7.00;99.90
11136;DHT22;5622;50.840;4.948;2023-02-12T06:17:35;6.90;99.90
11136;DHT22;5622;50.840;4.948;2023-02-12T06:20:02;6.90;99.90
11136;DHT22;5622;50.840;4.948;2023-02-12T06:22:29;6.90;99.90
11136;DHT22;5622;50.840;4.948;2023-02-12T06:24:57;6.90;99.90
11136;DHT22;5622;50.840;4.948;2023-02-12T06:27:24;7.00;99.90
11136;DHT22;5622;50.840;4.948;2023-02-12T06:29:51;6.90;99.90
11136;DHT22;5622;50.840;4.948;2023-02-12T06:32:19;6.90;99.90
11136;DHT22;5622;50.840;4.948;2023-02-12T06:34:47;6.90;99.90
11136;DHT22;5622;50.840;4.948;2023-02-12T06:37:14;7.00;99.90
11136;DHT22;5622;50.840;4.948;2023-02-12T06:39:41;6.90;99.90
11136;DHT22;5622;50.840;4.948;2023-02-12T06:42:08;6.90;99.90
11136;DHT22;5622;50.840;4.948;2023-02-12T06:44:35;6.90;99.90
11136;DHT22;5622;50.840;4.948;2023-02-12T06:47:02;6.90;99.90
11136;DHT22;5622;50.840;4.948;2023-02-12T06:49:31;6.90;99.90
11136;DHT22;5622;50.840;4.948;2023-02-12T06:51:58;6.90;99.90
11136;DHT22;5622;50.840;4.948;2023-02-12T06:54:25;7.00;99.90
11136;DHT22;5622;50.840;4.948;2023-02-12T06:56:52;6.90;99.90
11136;DHT22;5622;50.840;4.948;2023-02-12T06:59:20;6.90;99.90
11136;DHT22;5622;50.840;4.948;2023-02-12T07:01:47;6.90;99.90
11136;DHT22;5622;50.840;4.948;2023-02-12T07:04:14;6.90;99.90
11136;DHT22;5622;50.840;4.948;2023-02-12T07:06:42;6.90;99.90
11136;DHT22;5622;50.840;4.948;2023-02-12T07:09:09;6.90;99.90
11136;DHT22;5622;50.840;4.948;2023-02-12T07:11:37;6.90;99.90
11136;DHT22;5622;50.840;4.948;2023-02-12T07:14:04;6.90;99.90
11136;DHT22;5622;50.840;4.948;2023-02-12T07:16:31;6.90;99.90
11136;DHT22;5622;50.840;4.948;2023-02-12T07:18:58;6.90;99.90
11136;DHT22;5622;50.840;4.948;2023-02-12T07:21:26;6.90;99.90
11136;DHT22;5622;50.840;4.948;2023-02-12T07:23:54;6.90;99.90
11136;DHT22;5622;50.840;4.948;2023-02-12T07:26:21;7.00;99.90
11136;DHT22;5622;50.840;4.948;2023-02-12T07:28:49;7.00;99.90
11136;DHT22;5622;50.840;4.948;2023-02-12T07:36:29;7.00;99.90
11136;DHT22;5622;50.840;4.948;2023-02-12T07:38:58;7.00;99.90
11136;DHT22;5622;50.840;4.948;2023-02-12T07:41:27;7.00;99.90
11136;DHT22;5622;50.840;4.948;2023-02-12T07:43:56;6.90;99.90
11136;DHT22;5622;50.840;4.948;2023-02-12T07:46:25;6.90;99.90
11136;DHT22;5622;50.840;4.948;2023-02-12T07:48:54;6.90;99.90
11136;DHT22;5622;50.840;4.948;2023-02-12T07:51:22;6.90;99.90
11136;DHT22;5622;50.840;4.948;2023-02-12T07:53:49;7.00;99.90
11136;DHT22;5622;50.840;4.948;2023-02-12T07:56:20;6.90;99.90
11136;DHT22;5622;50.840;4.948;2023-02-12T07:58:49;7.00;99.90
11136;DHT22;5622;50.840;4.948;2023-02-12T08:01:18;7.00;99.90
11136;DHT22;5622;50.840;4.948;2023-02-12T08:03:46;7.00;99.90
11136;DHT22;5622;50.840;4.948;2023-02-12T08:06:15;7.00;99.90
11136;DHT22;5622;50.840;4.948;2023-02-12T08:08:42;7.00;99.90
11136;DHT22;5622;50.840;4.948;2023-02-12T08:11:11;7.00;99.90
11136;DHT22;5622;50.840;4.948;2023-02-12T08:13:40;7.00;99.90
11136;DHT22;5622;50.840;4.948;2023-02-12T08:16:10;7.00;99.90
11136;DHT22;5622;50.840;4.948;2023-02-12T08:18:37;7.00;99.90
11136;DHT22;5622;50.840;4.948;2023-02-12T08:21:06;7.10;99.90
11136;DHT22;5622;50.840;4.948;2023-02-12T08:23:34;7.10;99.90
11136;DHT22;5622;50.840;4.948;2023-02-12T08:26:05;7.10;99.90
11136;DHT22;5622;50.840;4.948;2023-02-12T08:28:33;7.10;99.90
11136;DHT22;5622;50.840;4.948;2023-02-12T08:31:02;7.10;99.90
11136;DHT22;5622;50.840;4.948;2023-02-12T08:33:30;7.10;99.90
11136;DHT22;5622;50.840;4.948;2023-02-12T08:36:02;7.10;99.90
11136;DHT22;5622;50.840;4.948;2023-02-12T08:38:30;7.20;99.90
11136;DHT22;5622;50.840;4.948;2023-02-12T08:41:00;7.20;99.90
11136;DHT22;5622;50.840;4.948;2023-02-12T08:43:28;7.20;99.90
11136;DHT22;5622;50.840;4.948;2023-02-12T08:46:02;7.20;99.90
11136;DHT22;5622;50.840;4.948;2023-02-12T08:48:29;7.20;99.90
11136;DHT22;5622;50.840;4.948;2023-02-12T08:51:01;7.20;99.90
11136;DHT22;5622;50.840;4.948;2023-02-12T08:53:28;7.20;99.90
11136;DHT22;5622;50.840;4.948;2023-02-12T08:55:55;7.20;99.90
11136;DHT22;5622;50.840;4.948;2023-02-12T08:58:23;7.20;99.90
11136;DHT22;5622;50.840;4.948;2023-02-12T09:00:50;7.20;99.90
11136;DHT22;5622;50.840;4.948;2023-02-12T09:03:18;7.20;99.90
11136;DHT22;5622;50.840;4.948;2023-02-12T09:05:45;7.20;99.90
11136;DHT22;5622;50.840;4.948;2023-02-12T09:08:12;7.20;99.90
11136;DHT22;5622;50.840;4.948;2023-02-12T09:10:40;7.30;99.90
11136;DHT22;5622;50.840;4.948;2023-02-12T09:13:08;7.30;99.90
11136;DHT22;5622;50.840;4.948;2023-02-12T09:15:36;7.30;99.90
11136;DHT22;5622;50.840;4.948;2023-02-12T09:18:04;7.30;99.90
11136;DHT22;5622;50.840;4.948;2023-02-12T09:20:35;7.30;99.90
11136;DHT22;5622;50.840;4.948;2023-02-12T09:23:02;7.30;99.90
11136;DHT22;5622;50.840;4.948;2023-02-12T09:25:30;7.30;99.90
11136;DHT22;5622;50.840;4.948;2023-02-12T09:27:59;7.30;99.90
11136;DHT22;5622;50.840;4.948;2023-02-12T09:30:26;7.30;99.90
11136;DHT22;5622;50.840;4.948;2023-02-12T09:32:54;7.30;99.90
11136;DHT22;5622;50.840;4.948;2023-02-12T09:35:21;7.40;99.90
11136;DHT22;5622;50.840;4.948;2023-02-12T09:37:51;7.40;99.90
11136;DHT22;5622;50.840;4.948;2023-02-12T09:40:21;7.40;99.90
11136;DHT22;5622;50.840;4.948;2023-02-12T09:43:02;7.40;99.90
11136;DHT22;5622;50.840;4.948;2023-02-12T09:45:35;7.40;99.90
11136;DHT22;5622;50.840;4.948;2023-02-12T09:48:15;7.50;99.90
11136;DHT22;5622;50.840;4.948;2023-02-12T09:50:47;7.50;99.90
11136;DHT22;5622;50.840;4.948;2023-02-12T10:01:44;7.50;99.90
11136;DHT22;5622;50.840;4.948;2023-02-12T10:30:15;7.80;99.90
11136;DHT22;5622;50.840;4.948;2023-02-12T10:32:44;7.80;99.90
11136;DHT22;5622;50.840;4.948;2023-02-12T10:35:14;7.80;99.90
11136;DHT22;5622;50.840;4.948;2023-02-12T10:37:44;7.80;99.90
11136;DHT22;5622;50.840;4.948;2023-02-12T10:40:17;7.80;99.90
11136;DHT22;5622;50.840;4.948;2023-02-12T10:42:47;7.90;99.90
11136;DHT22;5622;50.840;4.948;2023-02-12T10:45:21;7.90;99.90
11136;DHT22;5622;50.840;4.948;2023-02-12T10:47:53;7.90;99.90
11136;DHT22;5622;50.840;4.948;2023-02-12T10:50:36;7.90;99.90
11136;DHT22;5622;50.840;4.948;2023-02-12T10:53:07;7.90;99.90
11136;DHT22;5622;50.840;4.948;2023-02-12T10:55:39;8.00;99.90
11136;DHT22;5622;50.840;4.948;2023-02-12T10:58:17;8.00;99.90
11136;DHT22;5622;50.840;4.948;2023-02-12T11:00:55;8.00;99.90
11136;DHT22;5622;50.840;4.948;2023-02-12T11:03:27;8.00;99.90
11136;DHT22;5622;50.840;4.948;2023-02-12T11:05:54;8.00;99.90
11136;DHT22;5622;50.840;4.948;2023-02-12T11:08:31;8.00;99.90
11136;DHT22;5622;50.840;4.948;2023-02-12T11:11:04;8.10;99.90
11136;DHT22;5622;50.840;4.948;2023-02-12T11:13:32;8.10;99.90
11136;DHT22;5622;50.840;4.948;2023-02-12T11:16:01;8.10;99.90
11136;DHT22;5622;50.840;4.948;2023-02-12T11:18:30;8.10;99.90
11136;DHT22;5622;50.840;4.948;2023-02-12T11:21:00;8.10;99.90
11136;DHT22;5622;50.840;4.948;2023-02-12T11:23:29;8.10;99.90
11136;DHT22;5622;50.840;4.948;2023-02-12T11:25:59;8.10;99.90
11136;DHT22;5622;50.840;4.948;2023-02-12T11:28:27;8.10;99.90
11136;DHT22;5622;50.840;4.948;2023-02-12T11:30:56;8.20;99.90
11136;DHT22;5622;50.840;4.948;2023-02-12T11:33:28;8.10;99.90
11136;DHT22;5622;50.840;4.948;2023-02-12T11:35:58;8.20;99.90
11136;DHT22;5622;50.840;4.948;2023-02-12T11:38:29;8.20;99.90
11136;DHT22;5622;50.840;4.948;2023-02-12T11:41:03;8.20;99.90
11136;DHT22;5622;50.840;4.948;2023-02-12T11:43:34;8.20;99.90
11136;DHT22;5622;50.840;4.948;2023-02-12T11:46:04;8.20;99.90
11136;DHT22;5622;50.840;4.948;2023-02-12T11:48:37;8.20;99.90
11136;DHT22;5622;50.840;4.948;2023-02-12T11:51:07;8.20;99.90
11136;DHT22;5622;50.840;4.948;2023-02-12T11:53:37;8.30;99.90
11136;DHT22;5622;50.840;4.948;2023-02-12T11:56:09;8.30;99.90
11136;DHT22;5622;50.840;4.948;2023-02-12T11:58:36;8.30;99.90
11136;DHT22;5622;50.840;4.948;2023-02-12T12:01:09;8.30;99.90
11136;DHT22;5622;50.840;4.948;2023-02-12T12:03:47;8.30;99.90
11136;DHT22;5622;50.840;4.948;2023-02-12T12:06:25;8.30;99.90
11136;DHT22;5622;50.840;4.948;2023-02-12T12:08:58;8.40;99.90
11136;DHT22;5622;50.840;4.948;2023-02-12T12:11:34;8.40;99.90
11136;DHT22;5622;50.840;4.948;2023-02-12T12:14:05;8.40;99.90
11136;DHT22;5622;50.840;4.948;2023-02-12T12:16:39;8.40;99.90
11136;DHT22;5622;50.840;4.948;2023-02-12T12:19:32;8.40;99.90
11136;DHT22;5622;50.840;4.948;2023-02-12T12:22:39;8.40;99.90
11136;DHT22;5622;50.840;4.948;2023-02-12T12:25:15;8.40;99.90
11136;DHT22;5622;50.840;4.948;2023-02-12T12:27:54;8.50;99.90
11136;DHT22;5622;50.840;4.948;2023-02-12T12:30:48;8.50;99.90
11136;DHT22;5622;50.840;4.948;2023-02-12T12:33:25;8.50;99.90
11136;DHT22;5622;50.840;4.948;2023-02-12T13:17:49;8.60;99.90
11136;DHT22;5622;50.840;4.948;2023-02-12T13:20:22;8.70;99.90
11136;DHT22;5622;50.840;4.948;2023-02-12T13:22:58;8.60;99.90
11136;DHT22;5622;50.840;4.948;2023-02-12T13:25:29;8.70;99.90
11136;DHT22;5622;50.840;4.948;2023-02-12T13:27:58;8.60;99.90
11136;DHT22;5622;50.840;4.948;2023-02-12T13:30:30;8.60;99.90
11136;DHT22;5622;50.840;4.948;2023-02-12T13:33:06;8.70;99.90
11136;DHT22;5622;50.840;4.948;2023-02-12T13:35:36;8.60;99.90
11136;DHT22;5622;50.840;4.948;2023-02-12T13:38:06;8.60;99.90
11136;DHT22;5622;50.840;4.948;2023-02-12T13:40:35;8.60;99.90
11136;DHT22;5622;50.840;4.948;2023-02-12T13:43:10;8.60;99.90
11136;DHT22;5622;50.840;4.948;2023-02-12T13:45:47;8.60;99.90
11136;DHT22;5622;50.840;4.948;2023-02-12T13:48:35;8.70;99.90
11136;DHT22;5622;50.840;4.948;2023-02-12T13:51:13;8.60;99.90
11136;DHT22;5622;50.840;4.948;2023-02-12T13:53:51;8.70;99.90
11136;DHT22;5622;50.840;4.948;2023-02-12T13:56:32;8.70;99.90
11136;DHT22;5622;50.840;4.948;2023-02-12T13:59:00;8.70;99.90
11136;DHT22;5622;50.840;4.948;2023-02-12T14:01:41;8.70;99.90
11136;DHT22;5622;50.840;4.948;2023-02-12T14:04:29;8.70;99.90
11136;DHT22;5622;50.840;4.948;2023-02-12T14:06:59;8.70;99.90
11136;DHT22;5622;50.840;4.948;2023-02-12T14:09:31;8.70;99.90
11136;DHT22;5622;50.840;4.948;2023-02-12T14:12:01;8.70;99.90
11136;DHT22;5622;50.840;4.948;2023-02-12T14:14:33;8.90;99.90
11136;DHT22;5622;50.840;4.948;2023-02-12T14:20:07;8.70;99.90
11136;DHT22;5622;50.840;4.948;2023-02-12T14:23:01;8.80;99.90
11136;DHT22;5622;50.840;4.948;2023-02-12T14:25:37;8.80;99.90
11136;DHT22;5622;50.840;4.948;2023-02-12T14:28:21;8.80;99.90
11136;DHT22;5622;50.840;4.948;2023-02-12T14:31:21;8.70;99.90
11136;DHT22;5622;50.840;4.948;2023-02-12T14:42:56;8.70;99.90
11136;DHT22;5622;50.840;4.948;2023-02-12T14:45:31;8.70;99.90
11136;DHT22;5622;50.840;4.948;2023-02-12T14:47:59;8.80;99.90
11136;DHT22;5622;50.840;4.948;2023-02-12T14:50:36;8.80;99.90
11136;DHT22;5622;50.840;4.948;2023-02-12T14:55:50;8.80;99.90
11136;DHT22;5622;50.840;4.948;2023-02-12T14:58:20;8.80;99.90
11136;DHT22;5622;50.840;4.948;2023-02-12T15:00:51;8.80;99.90
11136;DHT22;5622;50.840;4.948;2023-02-12T15:03:23;8.80;99.90
11136;DHT22;5622;50.840;4.948;2023-02-12T15:05:57;8.80;99.90
11136;DHT22;5622;50.840;4.948;2023-02-12T15:08:31;8.80;99.90
11136;DHT22;5622;50.840;4.948;2023-02-12T15:11:07;8.80;99.90
11136;DHT22;5622;50.840;4.948;2023-02-12T15:13:45;8.80;99.90
11136;DHT22;5622;50.840;4.948;2023-02-12T15:16:21;8.80;99.90
11136;DHT22;5622;50.840;4.948;2023-02-12T15:18:52;8.80;99.90
11136;DHT22;5622;50.840;4.948;2023-02-12T15:21:22;8.80;99.90
11136;DHT22;5622;50.840;4.948;2023-02-12T15:24:00;8.80;99.90
11136;DHT22;5622;50.840;4.948;2023-02-12T15:26:33;8.80;99.90
11136;DHT22;5622;50.840;4.948;2023-02-12T15:35:02;8.80;99.90
11136;DHT22;5622;50.840;4.948;2023-02-12T15:37:30;8.80;99.90
11136;DHT22;5622;50.840;4.948;2023-02-12T15:40:00;8.80;99.90
11136;DHT22;5622;50.840;4.948;2023-02-12T15:42:32;8.90;99.90
11136;DHT22;5622;50.840;4.948;2023-02-12T15:48:49;8.70;99.90
11136;DHT22;5622;50.840;4.948;2023-02-12T16:50:56;8.60;99.90
11136;DHT22;5622;50.840;4.948;2023-02-12T16:53:38;8.50;99.90
11136;DHT22;5622;50.840;4.948;2023-02-12T16:56:13;8.50;99.90
11136;DHT22;5622;50.840;4.948;2023-02-12T16:58:43;8.50;99.90
11136;DHT22;5622;50.840;4.948;2023-02-12T17:01:20;8.50;99.90
11136;DHT22;5622;50.840;4.948;2023-02-12T17:03:48;8.50;99.90
11136;DHT22;5622;50.840;4.948;2023-02-12T17:06:20;8.50;99.90
11136;DHT22;5622;50.840;4.948;2023-02-12T17:08:48;8.50;99.90
11136;DHT22;5622;50.840;4.948;2023-02-12T17:11:16;8.50;99.90
11136;DHT22;5622;50.840;4.948;2023-02-12T17:13:44;8.40;99.90
11136;DHT22;5622;50.840;4.948;2023-02-12T17:16:12;8.40;99.90
